sensor_id;sensor_type;location;lat;lon;timestamp;pressure;altitude;pressure_sealevel;temperature
70435;BMP280;57876;47.792;12.960;2022-08-19T00:00:14;96300.59;;;20.89
70435;BMP280;57876;47.792;12.960;2022-08-19T00:02:40;96305.41;;;20.88
70435;BMP280;57876;47.792;12.960;2022-08-19T00:05:05;96302.66;;;20.88
70435;BMP280;57876;47.792;12.960;2022-08-19T00:07:30;96298.47;;;20.87
70435;BMP280;57876;47.792;12.960;2022-08-19T00:09:54;96286.16;;;20.88
70435;BMP280;57876;47.792;12.960;2022-08-19T00:12:19;96295.72;;;20.87
70435;BMP280;57876;47.792;12.960;2022-08-19T00:14:43;96311.59;;;20.89
70435;BMP280;57876;47.792;12.960;2022-08-19T00:17:08;96319.16;;;20.88
70435;BMP280;57876;47.792;12.960;2022-08-19T00:19:34;96317.09;;;20.89
70435;BMP280;57876;47.792;12.960;2022-08-19T00:21:59;96317.09;;;20.89
70435;BMP280;57876;47.792;12.960;2022-08-19T00:24:24;96330.84;;;20.89
70435;BMP280;57876;47.792;12.960;2022-08-19T00:26:50;96328.84;;;20.89
70435;BMP280;57876;47.792;12.960;2022-08-19T00:29:17;96332.16;;;20.88
70435;BMP280;57876;47.792;12.960;2022-08-19T00:31:43;96321.16;;;20.88
70435;BMP280;57876;47.792;12.960;2022-08-19T00:34:07;96319.16;;;20.88
70435;BMP280;57876;47.792;12.960;2022-08-19T00:36:32;96311.59;;;20.89
70435;BMP280;57876;47.792;12.960;2022-08-19T00:38:57;96314.22;;;20.87
70435;BMP280;57876;47.792;12.960;2022-08-19T00:41:23;96318.41;;;20.88
70435;BMP280;57876;47.792;12.960;2022-08-19T00:44:10;96323.22;;;20.87
70435;BMP280;57876;47.792;12.960;2022-08-19T00:46:37;96327.97;;;20.87
70435;BMP280;57876;47.792;12.960;2022-08-19T00:49:07;96320.47;;;20.87
70435;BMP280;57876;47.792;12.960;2022-08-19T00:51:33;96322.47;;;20.87
70435;BMP280;57876;47.792;12.960;2022-08-19T00:53:59;96302.53;;;20.86
70435;BMP280;57876;47.792;12.960;2022-08-19T00:56:25;96292.22;;;20.87
70435;BMP280;57876;47.792;12.960;2022-08-19T00:58:51;96291.53;;;20.86
70435;BMP280;57876;47.792;12.960;2022-08-19T01:01:15;96305.97;;;20.87
70435;BMP280;57876;47.792;12.960;2022-08-19T01:03:39;96300.47;;;20.87
70435;BMP280;57876;47.792;12.960;2022-08-19T01:06:04;96284.63;;;20.85
70435;BMP280;57876;47.792;12.960;2022-08-19T01:08:29;96286.72;;;20.87
70435;BMP280;57876;47.792;12.960;2022-08-19T01:10:56;96281.22;;;20.87
70435;BMP280;57876;47.792;12.960;2022-08-19T01:13:32;96286.03;;;20.86
70435;BMP280;57876;47.792;12.960;2022-08-19T01:16:01;96290.81;;;20.86
70435;BMP280;57876;47.792;12.960;2022-08-19T01:18:27;96295.63;;;20.85
70435;BMP280;57876;47.792;12.960;2022-08-19T01:20:54;96299.78;;;20.86
70435;BMP280;57876;47.792;12.960;2022-08-19T01:23:20;96302.53;;;20.86
70435;BMP280;57876;47.792;12.960;2022-08-19T01:25:50;96311.47;;;20.87
70435;BMP280;57876;47.792;12.960;2022-08-19T01:28:19;96308.72;;;20.87
70435;BMP280;57876;47.792;12.960;2022-08-19T01:30:45;96307.31;;;20.86
70435;BMP280;57876;47.792;12.960;2022-08-19T01:33:09;96300.47;;;20.87
70435;BMP280;57876;47.792;12.960;2022-08-19T01:35:35;96285.31;;;20.86
70435;BMP280;57876;47.792;12.960;2022-08-19T01:38:03;96294.97;;;20.87
70435;BMP280;57876;47.792;12.960;2022-08-19T01:40:33;96310.78;;;20.86
70435;BMP280;57876;47.792;12.960;2022-08-19T01:42:59;96330.63;;;20.85
70435;BMP280;57876;47.792;12.960;2022-08-19T01:45:26;96334.81;;;20.86
70435;BMP280;57876;47.792;12.960;2022-08-19T01:47:52;96353.38;;;20.85
70435;BMP280;57876;47.792;12.960;2022-08-19T01:50:16;96362.31;;;20.86
70435;BMP280;57876;47.792;12.960;2022-08-19T01:52:42;96344.38;;;20.85
70435;BMP280;57876;47.792;12.960;2022-08-19T01:55:11;96336.88;;;20.85
70435;BMP280;57876;47.792;12.960;2022-08-19T01:57:37;96342.38;;;20.85
70435;BMP280;57876;47.792;12.960;2022-08-19T02:00:07;96333.38;;;20.85
70435;BMP280;57876;47.792;12.960;2022-08-19T02:02:32;96339.63;;;20.85
70435;BMP280;57876;47.792;12.960;2022-08-19T02:04:57;96341.63;;;20.85
70435;BMP280;57876;47.792;12.960;2022-08-19T02:07:21;96336.88;;;20.85
70435;BMP280;57876;47.792;12.960;2022-08-19T02:09:45;96330.63;;;20.85
70435;BMP280;57876;47.792;12.960;2022-08-19T02:12:11;96338.88;;;20.85
70435;BMP280;57876;47.792;12.960;2022-08-19T02:14:36;96343.69;;;20.84
70435;BMP280;57876;47.792;12.960;2022-08-19T02:17:00;96347.13;;;20.85
70435;BMP280;57876;47.792;12.960;2022-08-19T02:19:25;96357.41;;;20.84
70435;BMP280;57876;47.792;12.960;2022-08-19T02:21:49;96351.94;;;20.84
70435;BMP280;57876;47.792;12.960;2022-08-19T02:24:13;96349.88;;;20.85
70435;BMP280;57876;47.792;12.960;2022-08-19T02:26:38;96340.31;;;20.86
70435;BMP280;57876;47.792;12.960;2022-08-19T02:29:05;96340.19;;;20.84
70435;BMP280;57876;47.792;12.960;2022-08-19T02:31:30;96345.69;;;20.84
70435;BMP280;57876;47.792;12.960;2022-08-19T02:33:55;96342.38;;;20.85
70435;BMP280;57876;47.792;12.960;2022-08-19T02:36:20;96343.78;;;20.86
70435;BMP280;57876;47.792;12.960;2022-08-19T02:38:45;96340.94;;;20.84
70435;BMP280;57876;47.792;12.960;2022-08-19T02:41:16;96323.69;;;20.84
70435;BMP280;57876;47.792;12.960;2022-08-19T02:43:41;96323.69;;;20.84
70435;BMP280;57876;47.792;12.960;2022-08-19T02:46:21;96318.94;;;20.84
70435;BMP280;57876;47.792;12.960;2022-08-19T02:48:45;96309.25;;;20.83
70435;BMP280;57876;47.792;12.960;2022-08-19T02:51:18;96304.44;;;20.84
70435;BMP280;57876;47.792;12.960;2022-08-19T02:53:43;96304.44;;;20.84
70435;BMP280;57876;47.792;12.960;2022-08-19T02:56:08;96311.25;;;20.83
70435;BMP280;57876;47.792;12.960;2022-08-19T02:58:33;96328.50;;;20.83
70435;BMP280;57876;47.792;12.960;2022-08-19T03:00:57;96323.00;;;20.83
70435;BMP280;57876;47.792;12.960;2022-08-19T03:03:22;96327.75;;;20.83
70435;BMP280;57876;47.792;12.960;2022-08-19T03:05:46;96337.44;;;20.84
70435;BMP280;57876;47.792;12.960;2022-08-19T03:08:12;96341.50;;;20.83
70435;BMP280;57876;47.792;12.960;2022-08-19T03:10:42;96345.69;;;20.84
70435;BMP280;57876;47.792;12.960;2022-08-19T03:13:08;96349.75;;;20.83
70435;BMP280;57876;47.792;12.960;2022-08-19T03:15:32;96359.44;;;20.84
70435;BMP280;57876;47.792;12.960;2022-08-19T03:17:57;96353.94;;;20.84
70435;BMP280;57876;47.792;12.960;2022-08-19T03:20:21;96351.19;;;20.84
70435;BMP280;57876;47.792;12.960;2022-08-19T03:22:46;96350.50;;;20.83
70435;BMP280;57876;47.792;12.960;2022-08-19T03:25:10;96360.03;;;20.82
70435;BMP280;57876;47.792;12.960;2022-08-19T03:27:36;96360.75;;;20.83
70435;BMP280;57876;47.792;12.960;2022-08-19T03:30:00;96384.19;;;20.84
70435;BMP280;57876;47.792;12.960;2022-08-19T03:32:25;96406.19;;;20.84
70435;BMP280;57876;47.792;12.960;2022-08-19T03:34:49;96411.69;;;20.84
70435;BMP280;57876;47.792;12.960;2022-08-19T03:37:15;96417.19;;;20.84
70435;BMP280;57876;47.792;12.960;2022-08-19T03:39:40;96406.19;;;20.84
70435;BMP280;57876;47.792;12.960;2022-08-19T03:42:05;96417.19;;;20.84
70435;BMP280;57876;47.792;12.960;2022-08-19T03:44:30;96410.97;;;20.83
70435;BMP280;57876;47.792;12.960;2022-08-19T03:46:56;96397.94;;;20.84
70435;BMP280;57876;47.792;12.960;2022-08-19T03:49:22;96403.44;;;20.84
70435;BMP280;57876;47.792;12.960;2022-08-19T03:51:48;96408.22;;;20.83
70435;BMP280;57876;47.792;12.960;2022-08-19T03:54:16;96413.72;;;20.83
70435;BMP280;57876;47.792;12.960;2022-08-19T03:56:43;96413.00;;;20.83
70435;BMP280;57876;47.792;12.960;2022-08-19T03:59:11;96409.50;;;20.82
70435;BMP280;57876;47.792;12.960;2022-08-19T04:01:35;96415.75;;;20.83
70435;BMP280;57876;47.792;12.960;2022-08-19T04:04:00;96415.75;;;20.83
70435;BMP280;57876;47.792;12.960;2022-08-19T04:06:28;96416.47;;;20.83
70435;BMP280;57876;47.792;12.960;2022-08-19T04:08:55;96426.75;;;20.83
70435;BMP280;57876;47.792;12.960;2022-08-19T04:11:24;96435.00;;;20.83
70435;BMP280;57876;47.792;12.960;2022-08-19T04:13:49;96432.25;;;20.83
70435;BMP280;57876;47.792;12.960;2022-08-19T04:16:15;96446.72;;;20.83
70435;BMP280;57876;47.792;12.960;2022-08-19T04:18:40;96437.75;;;20.83
70435;BMP280;57876;47.792;12.960;2022-08-19T04:21:05;96441.22;;;20.83
70435;BMP280;57876;47.792;12.960;2022-08-19T04:23:31;96435.72;;;20.83
70435;BMP280;57876;47.792;12.960;2022-08-19T04:25:56;96437.75;;;20.83
70435;BMP280;57876;47.792;12.960;2022-08-19T04:28:20;96442.50;;;20.82
70435;BMP280;57876;47.792;12.960;2022-08-19T04:30:48;96440.50;;;20.83
70435;BMP280;57876;47.792;12.960;2022-08-19T04:33:14;96437.00;;;20.82
70435;BMP280;57876;47.792;12.960;2022-08-19T04:35:42;96424.72;;;20.83
70435;BMP280;57876;47.792;12.960;2022-08-19T04:38:07;96420.50;;;20.82
70435;BMP280;57876;47.792;12.960;2022-08-19T04:40:31;96415.75;;;20.83
70435;BMP280;57876;47.792;12.960;2022-08-19T04:43:14;96406.75;;;20.82
70435;BMP280;57876;47.792;12.960;2022-08-19T04:45:39;96407.50;;;20.83
70435;BMP280;57876;47.792;12.960;2022-08-19T04:48:04;96401.25;;;20.82
70435;BMP280;57876;47.792;12.960;2022-08-19T04:50:29;96389.59;;;20.82
70435;BMP280;57876;47.792;12.960;2022-08-19T04:52:54;96389.59;;;20.82
70435;BMP280;57876;47.792;12.960;2022-08-19T04:55:19;96381.34;;;20.82
70435;BMP280;57876;47.792;12.960;2022-08-19T04:57:44;96375.84;;;20.82
70435;BMP280;57876;47.792;12.960;2022-08-19T05:00:09;96375.09;;;20.81
70435;BMP280;57876;47.792;12.960;2022-08-19T05:02:33;96373.09;;;20.82
70435;BMP280;57876;47.792;12.960;2022-08-19T05:04:59;96371.75;;;20.83
70435;BMP280;57876;47.792;12.960;2022-08-19T05:07:26;96371.75;;;20.83
70435;BMP280;57876;47.792;12.960;2022-08-19T05:09:51;96371.75;;;20.83
70435;BMP280;57876;47.792;12.960;2022-08-19T05:12:16;96360.75;;;20.83
70435;BMP280;57876;47.792;12.960;2022-08-19T05:14:41;96366.25;;;20.83
70435;BMP280;57876;47.792;12.960;2022-08-19T05:17:05;96366.25;;;20.83
70435;BMP280;57876;47.792;12.960;2022-08-19T05:19:30;96358.00;;;20.83
70435;BMP280;57876;47.792;12.960;2022-08-19T05:22:13;96358.75;;;20.83
70435;BMP280;57876;47.792;12.960;2022-08-19T05:24:56;96356.59;;;20.82
70435;BMP280;57876;47.792;12.960;2022-08-19T05:27:20;96371.03;;;20.82
70435;BMP280;57876;47.792;12.960;2022-08-19T05:29:45;96364.84;;;20.82
70435;BMP280;57876;47.792;12.960;2022-08-19T05:32:09;96361.50;;;20.83
70435;BMP280;57876;47.792;12.960;2022-08-19T05:34:34;96363.50;;;20.83
70435;BMP280;57876;47.792;12.960;2022-08-19T05:37:01;96349.75;;;20.83
70435;BMP280;57876;47.792;12.960;2022-08-19T05:39:29;96360.75;;;20.83
70435;BMP280;57876;47.792;12.960;2022-08-19T05:41:59;96364.25;;;20.83
70435;BMP280;57876;47.792;12.960;2022-08-19T05:44:25;96373.19;;;20.84
70435;BMP280;57876;47.792;12.960;2022-08-19T05:46:55;96378.69;;;20.84
70435;BMP280;57876;47.792;12.960;2022-08-19T05:49:22;96391.13;;;20.85
70435;BMP280;57876;47.792;12.960;2022-08-19T05:51:47;96384.19;;;20.84
70435;BMP280;57876;47.792;12.960;2022-08-19T05:54:11;96377.38;;;20.85
70435;BMP280;57876;47.792;12.960;2022-08-19T05:56:37;96369.13;;;20.85
70435;BMP280;57876;47.792;12.960;2022-08-19T05:59:03;96379.53;;;20.86
70435;BMP280;57876;47.792;12.960;2022-08-19T06:01:31;96380.22;;;20.87
70435;BMP280;57876;47.792;12.960;2022-08-19T06:03:55;96378.22;;;20.87
70435;BMP280;57876;47.792;12.960;2022-08-19T06:06:21;96369.97;;;20.87
70435;BMP280;57876;47.792;12.960;2022-08-19T06:08:45;96367.91;;;20.88
70435;BMP280;57876;47.792;12.960;2022-08-19T06:11:24;96369.34;;;20.89
70435;BMP280;57876;47.792;12.960;2022-08-19T06:13:51;96367.34;;;20.89
70435;BMP280;57876;47.792;12.960;2022-08-19T06:16:20;96361.09;;;20.89
70435;BMP280;57876;47.792;12.960;2022-08-19T06:18:46;96353.59;;;20.89
70435;BMP280;57876;47.792;12.960;2022-08-19T06:21:11;96351.53;;;20.90
70435;BMP280;57876;47.792;12.960;2022-08-19T06:23:35;96358.34;;;20.89
70435;BMP280;57876;47.792;12.960;2022-08-19T06:26:00;96359.78;;;20.90
70435;BMP280;57876;47.792;12.960;2022-08-19T06:28:24;96355.00;;;20.90
70435;BMP280;57876;47.792;12.960;2022-08-19T06:30:49;96352.84;;;20.89
70435;BMP280;57876;47.792;12.960;2022-08-19T06:33:14;96359.78;;;20.90
70435;BMP280;57876;47.792;12.960;2022-08-19T06:35:40;96368.03;;;20.90
70435;BMP280;57876;47.792;12.960;2022-08-19T06:38:05;96366.59;;;20.89
70435;BMP280;57876;47.792;12.960;2022-08-19T06:40:29;96372.84;;;20.89
70435;BMP280;57876;47.792;12.960;2022-08-19T06:42:53;96364.59;;;20.89
70435;BMP280;57876;47.792;12.960;2022-08-19T06:45:18;96361.09;;;20.89
70435;BMP280;57876;47.792;12.960;2022-08-19T06:47:44;96350.84;;;20.89
70435;BMP280;57876;47.792;12.960;2022-08-19T06:50:10;96352.84;;;20.89
70435;BMP280;57876;47.792;12.960;2022-08-19T06:52:35;96365.16;;;20.88
70435;BMP280;57876;47.792;12.960;2022-08-19T06:55:01;96373.41;;;20.88
70435;BMP280;57876;47.792;12.960;2022-08-19T06:57:26;96370.66;;;20.88
70435;BMP280;57876;47.792;12.960;2022-08-19T06:59:51;96367.91;;;20.88
70435;BMP280;57876;47.792;12.960;2022-08-19T07:02:15;96381.66;;;20.88
70435;BMP280;57876;47.792;12.960;2022-08-19T07:04:39;96373.41;;;20.88
70435;BMP280;57876;47.792;12.960;2022-08-19T07:07:09;96375.47;;;20.87
70435;BMP280;57876;47.792;12.960;2022-08-19T07:09:38;96357.66;;;20.88
70435;BMP280;57876;47.792;12.960;2022-08-19T07:12:04;96356.91;;;20.88
70435;BMP280;57876;47.792;12.960;2022-08-19T07:14:30;96350.09;;;20.89
70435;BMP280;57876;47.792;12.960;2022-08-19T07:16:56;96344.59;;;20.89
70435;BMP280;57876;47.792;12.960;2022-08-19T07:19:23;96344.59;;;20.89
70435;BMP280;57876;47.792;12.960;2022-08-19T07:21:50;96348.78;;;20.90
70435;BMP280;57876;47.792;12.960;2022-08-19T07:24:17;96338.50;;;20.90
70435;BMP280;57876;47.792;12.960;2022-08-19T07:26:43;96330.84;;;20.89
70435;BMP280;57876;47.792;12.960;2022-08-19T07:29:08;96326.78;;;20.90
70435;BMP280;57876;47.792;12.960;2022-08-19T07:31:33;96324.75;;;20.90
70435;BMP280;57876;47.792;12.960;2022-08-19T07:34:07;96313.03;;;20.90
70435;BMP280;57876;47.792;12.960;2022-08-19T07:36:33;96312.34;;;20.89
70435;BMP280;57876;47.792;12.960;2022-08-19T07:39:00;96331.69;;;20.91
70435;BMP280;57876;47.792;12.960;2022-08-19T07:41:26;96344.72;;;20.91
70435;BMP280;57876;47.792;12.960;2022-08-19T07:43:52;96345.44;;;20.91
70435;BMP280;57876;47.792;12.960;2022-08-19T07:46:18;96357.03;;;20.90
70435;BMP280;57876;47.792;12.960;2022-08-19T07:48:44;96374.25;;;20.90
70435;BMP280;57876;47.792;12.960;2022-08-19T07:51:14;96384.66;;;20.92
70435;BMP280;57876;47.792;12.960;2022-08-19T07:53:39;96385.25;;;20.90
70435;BMP280;57876;47.792;12.960;2022-08-19T07:56:04;96373.53;;;20.90
70435;BMP280;57876;47.792;12.960;2022-08-19T07:58:35;96374.97;;;20.91
70435;BMP280;57876;47.792;12.960;2022-08-19T08:01:02;96367.44;;;20.91
70435;BMP280;57876;47.792;12.960;2022-08-19T08:03:28;96376.41;;;20.92
70435;BMP280;57876;47.792;12.960;2022-08-19T08:06:13;96379.16;;;20.92
70435;BMP280;57876;47.792;12.960;2022-08-19T08:08:57;96376.41;;;20.92
70435;BMP280;57876;47.792;12.960;2022-08-19T08:11:56;96386.09;;;20.93
70435;BMP280;57876;47.792;12.960;2022-08-19T08:14:30;96380.59;;;20.93
70435;BMP280;57876;47.792;12.960;2022-08-19T08:16:55;96385.38;;;20.92
70435;BMP280;57876;47.792;12.960;2022-08-19T08:19:22;96383.34;;;20.93
70435;BMP280;57876;47.792;12.960;2022-08-19T08:21:48;96373.66;;;20.92
70435;BMP280;57876;47.792;12.960;2022-08-19T08:24:13;96384.78;;;20.94
70435;BMP280;57876;47.792;12.960;2022-08-19T08:26:39;96368.88;;;20.92
70435;BMP280;57876;47.792;12.960;2022-08-19T08:29:04;96373.78;;;20.94
70435;BMP280;57876;47.792;12.960;2022-08-19T08:31:28;96375.09;;;20.93
70435;BMP280;57876;47.792;12.960;2022-08-19T08:33:54;96368.97;;;20.94
70435;BMP280;57876;47.792;12.960;2022-08-19T08:36:18;96375.91;;;20.95
70435;BMP280;57876;47.792;12.960;2022-08-19T08:38:44;96371.13;;;20.96
70435;BMP280;57876;47.792;12.960;2022-08-19T08:43:55;96377.34;;;20.96
70435;BMP280;57876;47.792;12.960;2022-08-19T08:46:27;96375.31;;;20.97
70435;BMP280;57876;47.792;12.960;2022-08-19T08:48:59;96365.75;;;20.98
70435;BMP280;57876;47.792;12.960;2022-08-19T08:52:05;96363.00;;;20.98
70435;BMP280;57876;47.792;12.960;2022-08-19T08:54:42;96360.97;;;20.98
70435;BMP280;57876;47.792;12.960;2022-08-19T08:57:13;96363.00;;;20.98
70435;BMP280;57876;47.792;12.960;2022-08-19T08:59:41;96359.53;;;20.97
70435;BMP280;57876;47.792;12.960;2022-08-19T09:02:07;96360.84;;;20.96
70435;BMP280;57876;47.792;12.960;2022-08-19T09:04:37;96369.81;;;20.97
70435;BMP280;57876;47.792;12.960;2022-08-19T09:09:40;96382.25;;;20.98
70435;BMP280;57876;47.792;12.960;2022-08-19T09:12:34;96379.50;;;20.98
70435;BMP280;57876;47.792;12.960;2022-08-19T09:15:07;96389.06;;;20.97
70435;BMP280;57876;47.792;12.960;2022-08-19T09:17:33;96398.75;;;20.98
70435;BMP280;57876;47.792;12.960;2022-08-19T09:20:18;96409.75;;;20.98
70435;BMP280;57876;47.792;12.960;2022-08-19T09:22:43;96404.97;;;20.98
70435;BMP280;57876;47.792;12.960;2022-08-19T09:25:16;96396.72;;;20.98
70435;BMP280;57876;47.792;12.960;2022-08-19T09:27:42;96393.25;;;20.98
70435;BMP280;57876;47.792;12.960;2022-08-19T09:30:08;96385.00;;;20.98
70435;BMP280;57876;47.792;12.960;2022-08-19T09:32:33;96380.22;;;20.98
70435;BMP280;57876;47.792;12.960;2022-08-19T09:34:57;96379.59;;;21.00
70435;BMP280;57876;47.792;12.960;2022-08-19T09:37:22;96382.97;;;20.98
70435;BMP280;57876;47.792;12.960;2022-08-19T09:39:47;96378.16;;;20.99
70435;BMP280;57876;47.792;12.960;2022-08-19T09:42:11;96378.16;;;20.99
70435;BMP280;57876;47.792;12.960;2022-08-19T09:44:41;96361.66;;;20.99
70435;BMP280;57876;47.792;12.960;2022-08-19T09:47:08;96358.22;;;20.98
70435;BMP280;57876;47.792;12.960;2022-08-19T09:49:33;96348.66;;;20.99
70435;BMP280;57876;47.792;12.960;2022-08-19T09:51:57;96349.25;;;20.98
70435;BMP280;57876;47.792;12.960;2022-08-19T09:54:22;96351.41;;;20.99
70435;BMP280;57876;47.792;12.960;2022-08-19T09:56:47;96350.66;;;20.99
70435;BMP280;57876;47.792;12.960;2022-08-19T09:59:11;96345.16;;;20.99
70435;BMP280;57876;47.792;12.960;2022-08-19T10:01:36;96346.59;;;21.00
70435;BMP280;57876;47.792;12.960;2022-08-19T10:04:00;96343.84;;;21.00
70435;BMP280;57876;47.792;12.960;2022-08-19T10:06:29;96346.59;;;21.00
70435;BMP280;57876;47.792;12.960;2022-08-19T10:08:56;96342.53;;;21.01
70435;BMP280;57876;47.792;12.960;2022-08-19T10:11:21;96341.84;;;21.00
70435;BMP280;57876;47.792;12.960;2022-08-19T10:13:46;96344.59;;;21.00
70435;BMP280;57876;47.792;12.960;2022-08-19T10:16:13;96350.78;;;21.01
70435;BMP280;57876;47.792;12.960;2022-08-19T10:18:38;96355.59;;;21.00
70435;BMP280;57876;47.792;12.960;2022-08-19T10:21:29;96359.03;;;21.01
70435;BMP280;57876;47.792;12.960;2022-08-19T10:23:56;96371.34;;;21.00
70435;BMP280;57876;47.792;12.960;2022-08-19T10:26:24;96363.09;;;21.00
70435;BMP280;57876;47.792;12.960;2022-08-19T10:28:49;96368.59;;;21.00
70435;BMP280;57876;47.792;12.960;2022-08-19T10:31:19;96365.84;;;21.00
70435;BMP280;57876;47.792;12.960;2022-08-19T10:33:44;96363.84;;;21.00
70435;BMP280;57876;47.792;12.960;2022-08-19T10:36:11;96355.59;;;21.00
70435;BMP280;57876;47.792;12.960;2022-08-19T10:38:36;96351.41;;;20.99
70435;BMP280;57876;47.792;12.960;2022-08-19T10:41:28;96341.09;;;21.00
70435;BMP280;57876;47.792;12.960;2022-08-19T10:43:56;96343.16;;;20.99
70435;BMP280;57876;47.792;12.960;2022-08-19T10:46:23;96349.34;;;21.00
70435;BMP280;57876;47.792;12.960;2022-08-19T10:48:49;96347.34;;;21.00
70435;BMP280;57876;47.792;12.960;2022-08-19T10:51:14;96335.59;;;21.00
70435;BMP280;57876;47.792;12.960;2022-08-19T10:53:58;96339.66;;;20.99
70435;BMP280;57876;47.792;12.960;2022-08-19T10:56:23;96334.91;;;20.99
70435;BMP280;57876;47.792;12.960;2022-08-19T10:59:06;96338.34;;;21.00
70435;BMP280;57876;47.792;12.960;2022-08-19T11:01:32;96332.16;;;20.99
70435;BMP280;57876;47.792;12.960;2022-08-19T11:03:58;96335.59;;;21.00
70435;BMP280;57876;47.792;12.960;2022-08-19T11:06:23;96331.53;;;21.01
70435;BMP280;57876;47.792;12.960;2022-08-19T11:08:49;96323.91;;;20.99
70435;BMP280;57876;47.792;12.960;2022-08-19T11:11:13;96327.47;;;21.02
70435;BMP280;57876;47.792;12.960;2022-08-19T11:13:40;96327.47;;;21.02
70435;BMP280;57876;47.792;12.960;2022-08-19T11:16:17;96332.28;;;21.01
70435;BMP280;57876;47.792;12.960;2022-08-19T11:18:45;96327.47;;;21.02
70435;BMP280;57876;47.792;12.960;2022-08-19T11:21:16;96330.22;;;21.02
70435;BMP280;57876;47.792;12.960;2022-08-19T11:23:45;96321.97;;;21.02
70435;BMP280;57876;47.792;12.960;2022-08-19T11:26:10;96313.72;;;21.02
70435;BMP280;57876;47.792;12.960;2022-08-19T11:28:35;96309.53;;;21.01
70435;BMP280;57876;47.792;12.960;2022-08-19T11:31:02;96313.72;;;21.02
70435;BMP280;57876;47.792;12.960;2022-08-19T11:33:27;96308.09;;;21.00
70435;BMP280;57876;47.792;12.960;2022-08-19T11:35:52;96308.94;;;21.02
70435;BMP280;57876;47.792;12.960;2022-08-19T11:38:17;96308.22;;;21.02
70435;BMP280;57876;47.792;12.960;2022-08-19T11:40:42;96302.72;;;21.02
70435;BMP280;57876;47.792;12.960;2022-08-19T11:43:06;96306.78;;;21.01
70435;BMP280;57876;47.792;12.960;2022-08-19T11:45:31;96316.47;;;21.02
70435;BMP280;57876;47.792;12.960;2022-08-19T11:47:55;96310.97;;;21.02
70435;BMP280;57876;47.792;12.960;2022-08-19T11:50:21;96308.94;;;21.02
70435;BMP280;57876;47.792;12.960;2022-08-19T11:52:47;96317.88;;;21.03
70435;BMP280;57876;47.792;12.960;2022-08-19T11:55:13;96317.19;;;21.02
70435;BMP280;57876;47.792;12.960;2022-08-19T11:57:38;96313.13;;;21.03
70435;BMP280;57876;47.792;12.960;2022-08-19T12:00:05;96306.88;;;21.03
70435;BMP280;57876;47.792;12.960;2022-08-19T12:02:31;96306.19;;;21.02
70435;BMP280;57876;47.792;12.960;2022-08-19T12:04:56;96309.63;;;21.03
70435;BMP280;57876;47.792;12.960;2022-08-19T12:07:20;96317.19;;;21.02
70435;BMP280;57876;47.792;12.960;2022-08-19T12:09:45;96316.47;;;21.02
70435;BMP280;57876;47.792;12.960;2022-08-19T12:12:09;96304.13;;;21.03
70435;BMP280;57876;47.792;12.960;2022-08-19T12:14:33;96302.81;;;21.04
70435;BMP280;57876;47.792;12.960;2022-08-19T12:16:58;96295.88;;;21.03
70435;BMP280;57876;47.792;12.960;2022-08-19T12:19:23;96299.97;;;21.02
70435;BMP280;57876;47.792;12.960;2022-08-19T12:21:48;96302.72;;;21.02
70435;BMP280;57876;47.792;12.960;2022-08-19T12:24:13;96302.03;;;21.01
70435;BMP280;57876;47.792;12.960;2022-08-19T12:26:38;96299.97;;;21.02
70435;BMP280;57876;47.792;12.960;2022-08-19T12:29:03;96301.28;;;21.01
70435;BMP280;57876;47.792;12.960;2022-08-19T12:31:28;96304.03;;;21.01
70435;BMP280;57876;47.792;12.960;2022-08-19T12:33:53;96295.16;;;21.02
70435;BMP280;57876;47.792;12.960;2022-08-19T12:36:17;96300.69;;;21.02
70435;BMP280;57876;47.792;12.960;2022-08-19T12:38:42;96294.47;;;21.02
70435;BMP280;57876;47.792;12.960;2022-08-19T12:41:10;96305.47;;;21.02
70435;BMP280;57876;47.792;12.960;2022-08-19T12:43:36;96300.69;;;21.02
70435;BMP280;57876;47.792;12.960;2022-08-19T12:46:05;96306.88;;;21.03
70435;BMP280;57876;47.792;12.960;2022-08-19T12:48:31;96304.13;;;21.03
70435;BMP280;57876;47.792;12.960;2022-08-19T12:50:56;96307.63;;;21.03
70435;BMP280;57876;47.792;12.960;2022-08-19T12:53:20;96306.88;;;21.03
70435;BMP280;57876;47.792;12.960;2022-08-19T12:55:45;96307.63;;;21.03
70435;BMP280;57876;47.792;12.960;2022-08-19T12:58:09;96305.47;;;21.02
70435;BMP280;57876;47.792;12.960;2022-08-19T13:00:34;96312.38;;;21.03
70435;BMP280;57876;47.792;12.960;2022-08-19T13:03:00;96318.63;;;21.03
70435;BMP280;57876;47.792;12.960;2022-08-19T13:05:27;96310.38;;;21.03
70435;BMP280;57876;47.792;12.960;2022-08-19T13:07:55;96317.19;;;21.02
70435;BMP280;57876;47.792;12.960;2022-08-19T13:10:27;96319.22;;;21.02
70435;BMP280;57876;47.792;12.960;2022-08-19T13:12:52;96313.13;;;21.03
70435;BMP280;57876;47.792;12.960;2022-08-19T13:15:18;96319.94;;;21.02
70435;BMP280;57876;47.792;12.960;2022-08-19T13:17:44;96317.19;;;21.02
70435;BMP280;57876;47.792;12.960;2022-08-19T13:20:10;96319.22;;;21.02
70435;BMP280;57876;47.792;12.960;2022-08-19T13:22:35;96339.19;;;21.02
70435;BMP280;57876;47.792;12.960;2022-08-19T13:25:00;96332.28;;;21.01
70435;BMP280;57876;47.792;12.960;2022-08-19T13:27:25;96341.22;;;21.02
70435;BMP280;57876;47.792;12.960;2022-08-19T13:29:49;96337.03;;;21.01
70435;BMP280;57876;47.792;12.960;2022-08-19T13:32:32;96328.78;;;21.01
70435;BMP280;57876;47.792;12.960;2022-08-19T13:35:16;96327.34;;;21.00
70435;BMP280;57876;47.792;12.960;2022-08-19T13:37:41;96326.78;;;21.01
70435;BMP280;57876;47.792;12.960;2022-08-19T13:40:06;96332.28;;;21.01
70435;BMP280;57876;47.792;12.960;2022-08-19T13:42:31;96325.34;;;21.00
70435;BMP280;57876;47.792;12.960;2022-08-19T13:44:56;96331.53;;;21.01
70435;BMP280;57876;47.792;12.960;2022-08-19T13:47:22;96330.22;;;21.02
70435;BMP280;57876;47.792;12.960;2022-08-19T13:49:46;96326.78;;;21.01
70435;BMP280;57876;47.792;12.960;2022-08-19T13:52:12;96321.16;;;20.99
70435;BMP280;57876;47.792;12.960;2022-08-19T13:54:36;96320.53;;;21.01
70435;BMP280;57876;47.792;12.960;2022-08-19T13:57:00;96320.53;;;21.01
70435;BMP280;57876;47.792;12.960;2022-08-19T13:59:25;96325.34;;;21.00